createdAt,value
2022-08-17T00:00:18.259Z,5.63
2022-08-17T00:03:06.695Z,5.67
2022-08-17T00:05:38.636Z,6.30
2022-08-17T00:08:06.051Z,6.00
2022-08-17T00:10:33.470Z,5.87
2022-08-17T00:13:02.933Z,5.67
2022-08-17T00:15:29.958Z,6.10
2022-08-17T00:17:59.776Z,5.60
2022-08-17T00:20:30.435Z,5.33
2022-08-17T00:23:07.505Z,5.20
2022-08-17T00:25:38.960Z,5.50
2022-08-17T00:28:06.215Z,4.90
2022-08-17T00:30:51.316Z,4.90
2022-08-17T00:33:27.163Z,4.83
2022-08-17T00:35:55.821Z,4.63
2022-08-17T00:38:23.855Z,4.60
2022-08-17T00:40:55.638Z,4.60
2022-08-17T00:43:36.838Z,4.23
2022-08-17T00:46:11.238Z,4.50
2022-08-17T00:48:39.149Z,4.93
2022-08-17T00:51:20.567Z,4.30
2022-08-17T00:53:55.451Z,4.00
2022-08-17T00:56:32.551Z,4.30
2022-08-17T00:58:59.673Z,4.10
2022-08-17T01:01:26.744Z,4.20
2022-08-17T01:03:55.631Z,4.13
2022-08-17T01:06:29.038Z,3.70
2022-08-17T01:08:57.996Z,3.93
2022-08-17T01:11:26.025Z,3.60
2022-08-17T01:13:55.864Z,3.50
2022-08-17T01:16:31.087Z,3.70
2022-08-17T01:19:07.242Z,3.60
2022-08-17T01:21:46.345Z,3.63
2022-08-17T01:24:14.173Z,3.60
2022-08-17T01:26:43.056Z,3.80
2022-08-17T01:29:16.096Z,3.63
2022-08-17T01:31:47.287Z,3.20
2022-08-17T01:34:15.971Z,3.70
2022-08-17T01:36:46.606Z,3.23
2022-08-17T01:39:24.480Z,3.47
2022-08-17T01:41:54.076Z,3.63
2022-08-17T01:44:22.072Z,3.20
2022-08-17T01:46:50.063Z,3.20
2022-08-17T01:49:19.616Z,3.43
2022-08-17T01:51:46.463Z,3.73
2022-08-17T01:54:16.077Z,3.30
2022-08-17T01:56:47.619Z,3.47
2022-08-17T01:59:19.845Z,3.50
2022-08-17T02:01:47.053Z,3.57
2022-08-17T02:04:16.731Z,3.80
2022-08-17T02:06:52.843Z,3.40
2022-08-17T02:09:29.781Z,3.23
2022-08-17T02:12:00.010Z,3.53
2022-08-17T02:14:47.633Z,3.57
2022-08-17T02:17:14.559Z,3.63
2022-08-17T02:19:41.839Z,3.60
2022-08-17T02:22:09.159Z,3.40
2022-08-17T02:24:59.360Z,3.63
2022-08-17T02:27:29.837Z,3.27
2022-08-17T02:30:01.085Z,3.50
2022-08-17T02:32:28.872Z,3.43
2022-08-17T02:34:57.304Z,3.27
2022-08-17T02:37:25.520Z,3.40
2022-08-17T02:39:52.584Z,3.50
2022-08-17T02:42:25.497Z,3.50
2022-08-17T02:44:52.403Z,3.40
2022-08-17T02:47:19.224Z,3.30
2022-08-17T02:49:54.126Z,3.10
2022-08-17T02:52:42.523Z,3.50
2022-08-17T02:55:23.697Z,3.60
2022-08-17T02:57:51.311Z,3.43
2022-08-17T03:00:22.204Z,3.80
2022-08-17T03:02:50.308Z,3.37
2022-08-17T03:05:20.981Z,3.60
2022-08-17T03:07:47.930Z,3.63
2022-08-17T03:10:15.352Z,3.90
2022-08-17T03:12:43.524Z,3.57
2022-08-17T03:15:18.432Z,3.80
2022-08-17T03:17:45.545Z,3.80
2022-08-17T03:20:13.469Z,3.87
2022-08-17T03:22:53.521Z,3.63
2022-08-17T03:25:24.973Z,3.90
2022-08-17T03:27:55.566Z,4.03
2022-08-17T03:30:23.948Z,3.40
2022-08-17T03:32:53.459Z,3.53
2022-08-17T03:35:25.077Z,3.70
2022-08-17T03:38:00.321Z,3.63
2022-08-17T03:40:41.801Z,3.73
2022-08-17T03:43:19.944Z,3.70
2022-08-17T03:46:24.950Z,3.60
2022-08-17T03:49:14.070Z,3.80
2022-08-17T03:52:01.028Z,3.93
2022-08-17T03:54:46.495Z,3.70
2022-08-17T03:57:13.906Z,3.60
2022-08-17T03:59:40.887Z,3.70
2022-08-17T04:02:11.085Z,4.03
2022-08-17T04:04:39.341Z,3.83
2022-08-17T04:07:06.871Z,3.60
2022-08-17T04:09:34.086Z,3.87
2022-08-17T04:12:04.476Z,3.90
2022-08-17T04:14:36.438Z,3.87
2022-08-17T04:17:20.073Z,3.80
2022-08-17T04:19:47.049Z,4.27
2022-08-17T04:22:31.850Z,3.50
2022-08-17T04:25:17.114Z,3.60
2022-08-17T04:27:44.044Z,3.50
2022-08-17T04:30:14.159Z,3.60
2022-08-17T04:33:04.002Z,3.93
2022-08-17T04:35:55.425Z,3.60
2022-08-17T04:38:26.074Z,3.80
2022-08-17T04:41:12.739Z,3.70
2022-08-17T04:43:44.387Z,4.10
2022-08-17T04:46:17.328Z,3.60
2022-08-17T04:48:52.085Z,3.83
2022-08-17T04:51:20.702Z,3.53
2022-08-17T04:53:54.050Z,3.57
2022-08-17T04:56:24.380Z,3.80
2022-08-17T04:58:54.630Z,4.00
2022-08-17T05:01:28.934Z,4.10
2022-08-17T05:03:59.082Z,3.80
2022-08-17T05:06:27.647Z,3.57
2022-08-17T05:08:55.295Z,3.30
2022-08-17T05:11:23.849Z,3.60
2022-08-17T05:13:50.793Z,3.70
2022-08-17T05:16:19.486Z,3.43
2022-08-17T05:18:46.870Z,3.57
2022-08-17T05:21:14.648Z,3.47
2022-08-17T05:23:43.560Z,3.70
2022-08-17T05:26:25.652Z,3.87
2022-08-17T05:29:00.529Z,3.67
2022-08-17T05:31:31.137Z,3.67
2022-08-17T05:33:59.140Z,4.00
2022-08-17T05:36:43.414Z,3.90
2022-08-17T05:39:16.545Z,3.33
2022-08-17T05:41:48.187Z,3.20
2022-08-17T05:44:16.020Z,3.37
2022-08-17T05:46:48.493Z,3.47
2022-08-17T05:49:20.080Z,3.40
2022-08-17T05:52:20.792Z,3.23
2022-08-17T05:55:11.974Z,3.07
2022-08-17T05:57:53.271Z,3.27
2022-08-17T06:00:30.360Z,3.10
2022-08-17T06:03:16.781Z,3.10
2022-08-17T06:05:52.123Z,3.50
2022-08-17T06:08:54.484Z,3.60
2022-08-17T06:11:45.479Z,3.70
2022-08-17T06:14:32.977Z,4.10
2022-08-17T06:17:08.157Z,5.10
2022-08-17T06:19:39.867Z,4.50
2022-08-17T06:22:09.493Z,4.10
2022-08-17T06:24:42.045Z,4.23
2022-08-17T06:27:19.818Z,4.30
2022-08-17T06:29:51.117Z,4.60
2022-08-17T06:32:19.005Z,4.80
2022-08-17T06:34:46.474Z,4.73
2022-08-17T06:37:26.944Z,4.77
2022-08-17T06:40:15.894Z,4.23
2022-08-17T06:43:07.361Z,4.80
2022-08-17T06:45:43.889Z,4.80
2022-08-17T06:48:13.842Z,4.70
2022-08-17T06:51:10.141Z,5.37
2022-08-17T06:53:49.130Z,4.80
2022-08-17T06:56:53.408Z,5.07
2022-08-17T06:59:54.660Z,4.67
2022-08-17T07:02:29.098Z,4.60
2022-08-17T07:05:10.104Z,5.17
2022-08-17T07:07:57.139Z,4.93
2022-08-17T07:10:25.862Z,4.60
2022-08-17T07:12:54.596Z,4.80
2022-08-17T07:15:45.078Z,4.97
2022-08-17T07:18:12.062Z,5.23
2022-08-17T07:20:42.954Z,15.13
2022-08-17T07:23:28.358Z,21.00
2022-08-17T07:26:07.318Z,8.40
2022-08-17T07:28:36.179Z,5.67
2022-08-17T07:31:04.721Z,6.13
2022-08-17T07:33:36.930Z,5.20
2022-08-17T07:36:04.180Z,5.57
2022-08-17T07:38:33.237Z,5.13
2022-08-17T07:41:05.372Z,6.20
2022-08-17T07:43:35.258Z,5.43
2022-08-17T07:46:30.296Z,6.00
2022-08-17T07:49:16.665Z,6.23
2022-08-17T07:51:43.814Z,6.27
2022-08-17T07:54:22.524Z,6.53
2022-08-17T07:56:51.131Z,6.87
2022-08-17T07:59:24.116Z,7.03
2022-08-17T08:01:58.143Z,7.20
2022-08-17T08:07:22.182Z,7.20
2022-08-17T08:10:35.556Z,7.90
2022-08-17T08:13:15.742Z,7.33
2022-08-17T08:15:53.621Z,7.40
2022-08-17T08:18:53.754Z,7.47
2022-08-17T08:21:41.801Z,7.43
2022-08-17T08:24:11.661Z,11.27
2022-08-17T08:26:41.485Z,42.67
2022-08-17T08:29:29.961Z,10.97
2022-08-17T08:32:00.114Z,9.67
2022-08-17T08:35:02.710Z,8.70
2022-08-17T08:38:08.731Z,8.63
2022-08-17T08:40:55.451Z,7.70
2022-08-17T08:43:37.375Z,7.50
2022-08-17T08:46:23.041Z,7.57
2022-08-17T08:49:18.404Z,8.17
2022-08-17T08:51:53.145Z,8.17
2022-08-17T08:54:35.676Z,8.43
2022-08-17T08:57:26.919Z,7.97
2022-08-17T09:00:16.401Z,7.40
2022-08-17T09:03:04.477Z,8.47
2022-08-17T09:05:40.671Z,8.00
2022-08-17T09:08:16.858Z,8.43
2022-08-17T09:10:59.918Z,7.87
2022-08-17T09:13:59.214Z,8.47
2022-08-17T09:16:56.308Z,7.97
2022-08-17T09:19:59.460Z,8.13
2022-08-17T09:22:36.911Z,7.97
2022-08-17T09:25:12.171Z,8.03
2022-08-17T09:28:03.567Z,8.67
2022-08-17T09:31:03.799Z,8.73
2022-08-17T09:33:34.968Z,8.90
2022-08-17T09:36:26.795Z,15.20
2022-08-17T09:38:58.412Z,11.33
2022-08-17T09:41:33.711Z,9.33
2022-08-17T09:44:30.118Z,9.60
2022-08-17T09:47:28.012Z,8.83
2022-08-17T09:50:11.519Z,9.40
2022-08-17T09:52:39.281Z,8.17
2022-08-17T09:55:06.555Z,9.20
2022-08-17T09:57:42.904Z,8.57
2022-08-17T10:00:16.560Z,8.63
2022-08-17T10:03:03.255Z,9.07
2022-08-17T10:05:43.220Z,9.70
2022-08-17T10:08:36.404Z,8.63
2022-08-17T10:11:13.311Z,9.03
2022-08-17T10:13:53.093Z,9.67
2022-08-17T10:16:29.868Z,8.63
2022-08-17T10:19:08.271Z,9.50
2022-08-17T10:22:01.214Z,9.50
2022-08-17T10:25:23.474Z,8.70
2022-08-17T10:27:55.012Z,9.03
2022-08-17T10:30:25.549Z,9.07
2022-08-17T10:33:01.958Z,8.80
2022-08-17T10:35:41.338Z,8.80
2022-08-17T10:38:31.333Z,8.47
2022-08-17T10:41:07.049Z,7.90
2022-08-17T10:43:36.913Z,8.97
2022-08-17T10:46:30.905Z,8.53
2022-08-17T10:49:17.385Z,8.90
2022-08-17T10:51:48.174Z,8.50
2022-08-17T10:54:24.189Z,8.63
2022-08-17T10:56:53.930Z,7.70
2022-08-17T10:59:36.322Z,8.10
2022-08-17T11:02:28.159Z,8.53
2022-08-17T11:05:04.356Z,8.87
2022-08-17T11:07:37.190Z,8.80
2022-08-17T11:10:32.935Z,8.73
2022-08-17T11:13:09.016Z,9.23
2022-08-17T11:15:52.108Z,10.67
2022-08-17T11:18:19.002Z,11.37
2022-08-17T11:20:48.896Z,10.73
2022-08-17T11:23:38.308Z,10.03
2022-08-17T11:26:25.968Z,10.87
2022-08-17T11:28:59.599Z,10.17
2022-08-17T11:31:38.442Z,11.17
2022-08-17T11:34:22.407Z,11.07
2022-08-17T11:36:52.350Z,10.43
2022-08-17T11:39:23.122Z,10.20
2022-08-17T11:41:58.628Z,10.77
2022-08-17T11:44:32.428Z,10.53
2022-08-17T11:48:08.927Z,10.40
2022-08-17T11:51:47.266Z,10.43
2022-08-17T11:54:34.393Z,11.53
2022-08-17T11:57:29.426Z,12.60
2022-08-17T12:00:10.328Z,11.87
2022-08-17T12:02:48.070Z,12.90
2022-08-17T12:05:26.282Z,11.03
2022-08-17T12:08:05.633Z,11.10
2022-08-17T12:10:36.393Z,10.27
2022-08-17T12:13:13.319Z,12.03
2022-08-17T12:15:45.165Z,12.20
2022-08-17T12:18:28.014Z,11.77
2022-08-17T12:21:22.311Z,14.17
2022-08-17T12:23:56.972Z,12.73
2022-08-17T12:26:35.825Z,13.83
2022-08-17T12:29:39.033Z,13.30
2022-08-17T12:31:55.261Z,12.80
2022-08-17T12:34:36.335Z,12.23
2022-08-17T12:37:07.635Z,11.80
2022-08-17T12:39:35.455Z,11.90
2022-08-17T12:42:04.760Z,12.10
2022-08-17T12:44:35.098Z,10.57
2022-08-17T12:47:21.060Z,11.17
2022-08-17T12:49:51.801Z,11.50
2022-08-17T12:52:28.337Z,10.77
2022-08-17T12:55:21.289Z,10.30
2022-08-17T12:57:54.993Z,11.30
2022-08-17T13:00:41.215Z,12.43
2022-08-17T13:03:21.082Z,11.77
2022-08-17T13:05:56.602Z,12.47
2022-08-17T13:08:34.044Z,11.33
2022-08-17T13:11:04.006Z,12.20
2022-08-17T13:13:36.664Z,11.30
2022-08-17T13:16:09.560Z,12.43
2022-08-17T13:18:38.936Z,12.17
2022-08-17T13:21:11.914Z,11.43
2022-08-17T13:23:39.004Z,12.17
2022-08-17T13:26:15.580Z,11.37
2022-08-17T13:28:49.758Z,11.17
2022-08-17T13:31:27.889Z,12.97
2022-08-17T13:34:26.697Z,12.40
2022-08-17T13:37:17.675Z,12.73
2022-08-17T13:39:51.398Z,11.70
2022-08-17T13:42:52.058Z,11.67
2022-08-17T13:45:36.353Z,9.60
2022-08-17T13:48:16.531Z,9.30
2022-08-17T13:51:03.109Z,10.13
2022-08-17T13:53:40.498Z,11.70
2022-08-17T13:56:37.983Z,11.47
2022-08-17T13:59:36.076Z,10.67
2022-08-17T14:02:21.309Z,10.70
2022-08-17T14:04:48.848Z,12.83
2022-08-17T14:07:18.194Z,12.67
2022-08-17T14:10:10.909Z,12.50
2022-08-17T14:12:39.462Z,12.90
2022-08-17T14:15:08.059Z,13.50
2022-08-17T14:17:38.865Z,13.37
2022-08-17T14:20:09.677Z,16.47
2022-08-17T14:22:39.916Z,15.17
2022-08-17T14:25:10.255Z,13.17
2022-08-17T14:27:41.872Z,13.33
2022-08-17T14:30:22.257Z,14.87
2022-08-17T14:32:49.635Z,14.73
2022-08-17T14:35:17.199Z,13.60
2022-08-17T14:37:48.978Z,15.43
2022-08-17T14:40:21.000Z,15.37
2022-08-17T14:42:48.547Z,17.27
2022-08-17T14:45:30.458Z,15.53
2022-08-17T14:48:08.498Z,14.80
2022-08-17T14:50:39.196Z,14.40
2022-08-17T14:53:07.731Z,13.37
2022-08-17T14:55:36.370Z,14.57
2022-08-17T14:58:04.169Z,16.20
2022-08-17T15:00:32.476Z,15.17
2022-08-17T15:03:01.298Z,15.30
2022-08-17T15:05:32.408Z,16.07
2022-08-17T15:08:03.280Z,13.53
2022-08-17T15:10:32.998Z,14.13
2022-08-17T15:13:00.451Z,16.43
2022-08-17T15:15:28.333Z,14.90
2022-08-17T15:17:56.162Z,17.70
2022-08-17T15:20:27.747Z,16.40
2022-08-17T15:22:56.061Z,16.73
2022-08-17T15:25:24.819Z,15.80
2022-08-17T15:27:52.152Z,16.37
2022-08-17T15:30:21.014Z,16.43
2022-08-17T15:32:51.187Z,15.77
2022-08-17T15:35:28.026Z,15.90
2022-08-17T15:37:57.888Z,14.63
2022-08-17T15:40:25.242Z,14.63
2022-08-17T15:42:53.051Z,16.10
2022-08-17T15:45:24.723Z,15.47
2022-08-17T15:47:53.592Z,12.90
2022-08-17T15:50:21.100Z,12.70
2022-08-17T15:52:55.348Z,11.57
2022-08-17T15:55:24.286Z,12.90
2022-08-17T15:57:53.377Z,12.87
2022-08-17T16:00:27.970Z,12.80
2022-08-17T16:03:46.050Z,14.67
2022-08-17T16:05:44.830Z,12.50
2022-08-17T16:08:21.271Z,11.80
2022-08-17T16:10:50.288Z,13.03
2022-08-17T16:13:18.925Z,11.70
2022-08-17T16:15:57.282Z,13.13
2022-08-17T16:18:31.445Z,11.27
2022-08-17T16:21:24.174Z,11.70
2022-08-17T16:26:39.283Z,12.73
2022-08-17T16:29:08.440Z,12.53
2022-08-17T16:31:37.918Z,11.77
2022-08-17T16:34:17.527Z,11.40
2022-08-17T16:36:55.242Z,11.03
2022-08-17T16:39:33.891Z,10.60
2022-08-17T16:42:03.049Z,9.63
2022-08-17T16:44:32.397Z,10.67
2022-08-17T16:47:03.022Z,11.47
2022-08-17T16:49:37.199Z,10.30
2022-08-17T16:52:10.605Z,11.20
2022-08-17T16:54:41.990Z,10.80
2022-08-17T16:57:11.392Z,10.93
2022-08-17T16:59:42.633Z,11.37
2022-08-17T17:02:13.691Z,10.70
2022-08-17T17:05:03.098Z,10.30
2022-08-17T17:07:44.654Z,10.73
2022-08-17T17:10:27.699Z,10.93
2022-08-17T17:13:02.781Z,10.87
2022-08-17T17:15:56.388Z,11.23
2022-08-17T17:18:41.106Z,11.47
2022-08-17T17:21:14.361Z,10.90
2022-08-17T17:23:45.213Z,11.17
2022-08-17T17:27:02.204Z,11.43
2022-08-17T17:30:00.643Z,10.23
2022-08-17T17:32:38.284Z,9.87
2022-08-17T17:35:17.390Z,9.10
2022-08-17T17:37:45.983Z,10.37
2022-08-17T17:40:36.138Z,8.87
2022-08-17T17:43:34.777Z,9.13
2022-08-17T17:46:26.625Z,7.93
2022-08-17T17:48:46.314Z,8.43
2022-08-17T17:52:08.550Z,9.50
2022-08-17T17:54:46.857Z,8.60
2022-08-17T17:57:33.902Z,8.53
2022-08-17T18:00:14.376Z,7.90
2022-08-17T18:02:51.503Z,8.70
2022-08-17T18:05:39.801Z,8.43
2022-08-17T18:08:32.396Z,9.03
2022-08-17T18:11:24.053Z,8.17
2022-08-17T18:14:00.829Z,7.93
2022-08-17T18:16:32.079Z,8.97
2022-08-17T18:18:59.809Z,9.10
2022-08-17T18:21:48.200Z,9.37
2022-08-17T18:24:15.214Z,9.87
2022-08-17T18:26:47.917Z,9.77
2022-08-17T18:29:28.032Z,10.23
2022-08-17T18:32:12.847Z,10.03
2022-08-17T18:34:48.282Z,9.93
2022-08-17T18:37:36.090Z,10.43
2022-08-17T18:40:20.631Z,10.73
2022-08-17T18:43:07.978Z,10.43
2022-08-17T18:45:45.442Z,9.33
2022-08-17T18:48:36.791Z,9.57
2022-08-17T18:51:49.413Z,9.50
2022-08-17T18:54:16.811Z,9.40
2022-08-17T18:56:49.485Z,9.50
2022-08-17T19:02:20.700Z,9.10
2022-08-17T19:05:13.451Z,9.63
2022-08-17T19:07:43.551Z,8.70
2022-08-17T19:10:28.877Z,9.00
2022-08-17T19:13:13.049Z,9.13
2022-08-17T19:16:14.443Z,9.13
2022-08-17T19:18:49.205Z,8.67
2022-08-17T19:21:23.087Z,9.17
2022-08-17T19:24:07.248Z,8.97
2022-08-17T19:26:53.318Z,8.53
2022-08-17T19:29:47.025Z,8.40
2022-08-17T19:32:18.565Z,8.83
2022-08-17T19:34:45.895Z,8.93
2022-08-17T19:37:22.438Z,7.87
2022-08-17T19:40:52.141Z,8.33
2022-08-17T19:43:48.484Z,7.50
2022-08-17T19:46:49.977Z,7.97
2022-08-17T19:49:41.473Z,8.13
2022-08-17T19:52:22.618Z,8.40
2022-08-17T19:55:02.456Z,7.90
2022-08-17T19:57:37.296Z,8.13
2022-08-17T20:00:14.257Z,8.30
2022-08-17T20:02:55.343Z,8.37
2022-08-17T20:06:10.831Z,8.57
2022-08-17T20:08:41.487Z,8.40
2022-08-17T20:11:13.855Z,9.17
2022-08-17T20:14:02.355Z,9.13
2022-08-17T20:16:30.724Z,8.30
2022-08-17T20:19:05.728Z,8.30
2022-08-17T20:21:42.273Z,8.77
2022-08-17T20:24:21.338Z,8.17
2022-08-17T20:27:17.810Z,8.60
2022-08-17T20:30:00.193Z,8.20
2022-08-17T20:32:29.798Z,9.30
2022-08-17T20:35:08.350Z,8.77
2022-08-17T20:37:36.815Z,9.93
2022-08-17T20:40:09.888Z,9.17
2022-08-17T20:42:38.440Z,9.10
2022-08-17T20:45:20.791Z,8.47
2022-08-17T20:48:18.694Z,8.17
2022-08-17T20:50:43.635Z,8.30
2022-08-17T20:53:15.132Z,8.27
2022-08-17T20:55:52.442Z,8.43
2022-08-17T20:58:24.498Z,8.90
2022-08-17T21:00:57.209Z,8.77
2022-08-17T21:03:24.370Z,9.60
2022-08-17T21:06:15.306Z,9.63
2022-08-17T21:08:57.658Z,9.67
2022-08-17T21:11:56.716Z,10.60
2022-08-17T21:14:20.277Z,10.33
2022-08-17T21:16:56.626Z,10.33
2022-08-17T21:20:10.340Z,10.07
2022-08-17T21:23:00.295Z,9.50
2022-08-17T21:25:40.139Z,9.87
2022-08-17T21:28:30.093Z,9.87
2022-08-17T21:31:08.389Z,10.33
2022-08-17T21:33:38.806Z,9.27
2022-08-17T21:36:15.503Z,10.37
2022-08-17T21:38:49.025Z,9.93
2022-08-17T21:41:24.776Z,10.10
2022-08-17T21:43:58.253Z,11.10
2022-08-17T21:46:30.578Z,10.63
2022-08-17T21:49:13.456Z,11.50
2022-08-17T21:51:50.891Z,10.10
2022-08-17T21:54:21.178Z,11.13
2022-08-17T21:56:48.601Z,12.40
2022-08-17T21:59:21.972Z,11.57
2022-08-17T22:02:01.903Z,10.73
2022-08-17T22:04:35.583Z,11.53
2022-08-17T22:07:06.543Z,11.00
2022-08-17T22:09:50.584Z,10.97
2022-08-17T22:12:20.827Z,11.20
2022-08-17T22:14:54.306Z,10.67
2022-08-17T22:17:27.481Z,11.80
2022-08-17T22:20:19.659Z,11.53
2022-08-17T22:23:04.964Z,11.50
2022-08-17T22:25:36.188Z,11.77
2022-08-17T22:28:06.144Z,10.80
2022-08-17T22:30:40.048Z,11.87
2022-08-17T22:33:36.096Z,12.13
2022-08-17T22:36:24.325Z,12.60
2022-08-17T22:39:00.526Z,14.10
2022-08-17T22:41:54.339Z,14.30
2022-08-17T22:44:38.507Z,15.23
2022-08-17T22:47:15.539Z,14.60
2022-08-17T22:49:53.209Z,15.00
2022-08-17T22:52:31.563Z,16.17
2022-08-17T22:55:31.382Z,16.53
2022-08-17T22:58:18.137Z,17.60
2022-08-17T23:00:48.171Z,15.87
2022-08-17T23:03:22.240Z,16.93
2022-08-17T23:06:07.967Z,14.73
2022-08-17T23:08:46.299Z,16.03
2022-08-17T23:11:17.557Z,16.50
2022-08-17T23:13:45.940Z,17.80
2022-08-17T23:16:14.961Z,15.83
2022-08-17T23:18:41.908Z,14.50
2022-08-17T23:21:08.905Z,14.47
2022-08-17T23:23:43.805Z,13.77
2022-08-17T23:26:11.292Z,13.70
2022-08-17T23:28:38.307Z,13.23
2022-08-17T23:31:05.605Z,13.57
2022-08-17T23:33:38.625Z,13.40
2022-08-17T23:36:07.496Z,12.40
2022-08-17T23:38:35.170Z,13.73
2022-08-17T23:41:05.684Z,13.90
2022-08-17T23:43:33.051Z,13.80
2022-08-17T23:46:00.661Z,13.47
2022-08-17T23:48:35.919Z,12.90
2022-08-17T23:51:09.087Z,12.77
2022-08-17T23:53:37.566Z,12.53
2022-08-17T23:56:10.361Z,12.83
2022-08-17T23:58:45.897Z,13.03
